createdAt,value
2023-01-09T00:01:32.479Z,99295.94
2023-01-09T00:04:00.835Z,99302.16
2023-01-09T00:06:28.378Z,99299.66
2023-01-09T00:08:56.555Z,99297.97
2023-01-09T00:11:24.166Z,99292.00
2023-01-09T00:13:51.740Z,99298.06
2023-01-09T00:16:19.595Z,99302.59
2023-01-09T00:18:47.123Z,99287.94
2023-01-09T00:21:16.162Z,99297.59
2023-01-09T00:23:43.626Z,99295.94
2023-01-09T00:26:19.016Z,99289.91
2023-01-09T00:28:49.173Z,99294.50
2023-01-09T00:31:19.111Z,99300.63
2023-01-09T00:34:06.944Z,99305.06
2023-01-09T00:36:34.399Z,99308.81
2023-01-09T00:39:01.820Z,99303.69
2023-01-09T00:41:40.881Z,99314.28
2023-01-09T00:44:29.859Z,99317.97
2023-01-09T00:47:11.010Z,99316.44
2023-01-09T00:49:38.543Z,99314.00
2023-01-09T00:52:10.303Z,99317.63
2023-01-09T00:54:39.458Z,99318.78
2023-01-09T00:57:07.972Z,99322.47
2023-01-09T00:59:35.736Z,99316.50
2023-01-09T01:02:04.032Z,99322.69
2023-01-09T01:04:50.764Z,99328.94
2023-01-09T01:07:36.818Z,99341.28
2023-01-09T01:10:12.540Z,99326.63
2023-01-09T01:12:40.953Z,99328.56
2023-01-09T01:15:11.215Z,99334.75
2023-01-09T01:17:42.002Z,99334.06
2023-01-09T01:20:15.082Z,99331.56
2023-01-09T01:22:43.004Z,99330.00
2023-01-09T01:25:13.802Z,99335.31
2023-01-09T01:27:41.505Z,99337.22
2023-01-09T01:30:14.354Z,99332.91
2023-01-09T01:32:42.577Z,99337.41
2023-01-09T01:35:11.603Z,99346.19
2023-01-09T01:37:40.808Z,99337.63
2023-01-09T01:40:11.118Z,99339.47
2023-01-09T01:42:50.490Z,99336.91
2023-01-09T01:45:28.287Z,99337.06
2023-01-09T01:48:17.252Z,99337.13
2023-01-09T01:50:53.856Z,99339.84
2023-01-09T01:53:50.839Z,99350.31
2023-01-09T01:56:28.835Z,99357.34
2023-01-09T01:59:10.087Z,99354.78
2023-01-09T02:01:42.743Z,99350.56
2023-01-09T02:04:11.841Z,99348.06
2023-01-09T02:06:41.246Z,99344.66
2023-01-09T02:09:09.258Z,99356.00
2023-01-09T02:11:36.958Z,99356.06
2023-01-09T02:14:04.639Z,99350.88
2023-01-09T02:17:06.049Z,99353.50
2023-01-09T02:20:07.771Z,99364.97
2023-01-09T02:23:21.547Z,99363.38
2023-01-09T02:26:15.445Z,99359.09
2023-01-09T02:29:22.057Z,99362.59
2023-01-09T02:32:33.616Z,99363.56
2023-01-09T02:35:34.347Z,99362.78
2023-01-09T02:38:15.115Z,99367.19
2023-01-09T02:41:49.040Z,99365.53
2023-01-09T02:44:28.471Z,99368.31
2023-01-09T02:47:07.201Z,99376.97
2023-01-09T02:49:39.788Z,99377.00
2023-01-09T02:52:25.442Z,99369.19
2023-01-09T02:55:18.864Z,99364.09
2023-01-09T02:58:01.913Z,99363.28
2023-01-09T03:00:58.382Z,99356.41
2023-01-09T03:03:49.074Z,99352.19
2023-01-09T03:06:41.687Z,99356.53
2023-01-09T03:09:20.273Z,99365.28
2023-01-09T03:11:58.124Z,99354.09
2023-01-09T03:14:26.756Z,99352.44
2023-01-09T03:17:02.107Z,99347.34
2023-01-09T03:19:33.387Z,99345.66
2023-01-09T03:22:01.347Z,99351.00
2023-01-09T03:24:28.817Z,99353.66
2023-01-09T03:26:56.462Z,99351.16
2023-01-09T03:29:23.957Z,99349.44
2023-01-09T03:31:51.787Z,99347.75
2023-01-09T03:34:20.958Z,99351.19
2023-01-09T03:36:48.438Z,99350.34
2023-01-09T03:39:15.915Z,99358.19
2023-01-09T03:41:43.468Z,99353.00
2023-01-09T03:44:10.934Z,99352.16
2023-01-09T03:46:38.464Z,99357.34
2023-01-09T03:49:05.981Z,99366.06
2023-01-09T03:51:33.757Z,99367.81
2023-01-09T03:54:07.695Z,99369.56
2023-01-09T03:56:38.148Z,99372.22
2023-01-09T03:59:08.276Z,99368.78
2023-01-09T04:01:36.000Z,99374.84
2023-01-09T04:04:03.811Z,99367.00
2023-01-09T04:06:31.300Z,99360.97
2023-01-09T04:08:58.888Z,99358.38
2023-01-09T04:11:26.371Z,99350.56
2023-01-09T04:13:53.847Z,99363.63
2023-01-09T04:16:21.594Z,99359.34
2023-01-09T04:18:49.184Z,99358.47
2023-01-09T04:21:16.682Z,99357.56
2023-01-09T04:23:45.405Z,99374.06
2023-01-09T04:26:13.137Z,99374.00
2023-01-09T04:28:40.548Z,99369.66
2023-01-09T04:31:07.982Z,99369.66
2023-01-09T04:33:36.303Z,99373.06
2023-01-09T04:36:04.141Z,99374.78
2023-01-09T04:38:31.657Z,99371.34
2023-01-09T04:40:59.072Z,99370.47
2023-01-09T04:43:29.496Z,99380.84
2023-01-09T04:45:57.367Z,99375.63
2023-01-09T04:48:25.389Z,99379.06
2023-01-09T04:50:52.931Z,99384.22
2023-01-09T04:53:20.656Z,99381.59
2023-01-09T04:55:48.429Z,99383.25
2023-01-09T04:58:16.313Z,99377.81
2023-01-09T05:00:43.919Z,99372.44
2023-01-09T05:03:11.873Z,99371.47
2023-01-09T05:05:51.376Z,99371.28
2023-01-09T05:08:29.713Z,99373.78
2023-01-09T05:11:04.845Z,99374.56
2023-01-09T05:13:39.603Z,99377.00
2023-01-09T05:16:08.719Z,99380.44
2023-01-09T05:18:39.089Z,99379.41
2023-01-09T05:21:06.848Z,99383.66
2023-01-09T05:23:37.827Z,99366.97
2023-01-09T05:26:11.028Z,99373.94
2023-01-09T05:28:39.178Z,99373.03
2023-01-09T05:31:06.859Z,99376.38
2023-01-09T05:33:34.840Z,99375.31
2023-01-09T05:36:07.885Z,99374.38
2023-01-09T05:38:36.545Z,99369.03
2023-01-09T05:41:09.711Z,99372.38
2023-01-09T05:43:41.611Z,99369.72
2023-01-09T05:46:09.692Z,99360.00
2023-01-09T05:48:48.721Z,99370.38
2023-01-09T05:51:24.183Z,99353.72
2023-01-09T05:53:54.807Z,99357.16
2023-01-09T05:56:30.423Z,99358.78
2023-01-09T05:58:59.477Z,99357.84
2023-01-09T06:01:35.473Z,99359.50
2023-01-09T06:04:05.752Z,99368.94
2023-01-09T06:06:36.762Z,99361.91
2023-01-09T06:09:05.596Z,99357.50
2023-01-09T06:11:38.326Z,99356.50
2023-01-09T06:14:11.519Z,99361.59
2023-01-09T06:16:39.680Z,99352.81
2023-01-09T06:19:07.541Z,99350.94
2023-01-09T06:21:37.795Z,99344.75
2023-01-09T06:24:08.249Z,99343.75
2023-01-09T06:26:41.824Z,99337.63
2023-01-09T06:29:09.708Z,99350.56
2023-01-09T06:31:40.657Z,99340.03
2023-01-09T06:34:12.112Z,99338.22
2023-01-09T06:36:45.503Z,99339.06
2023-01-09T06:39:14.199Z,99343.31
2023-01-09T06:41:41.750Z,99349.34
2023-01-09T06:44:09.512Z,99348.41
2023-01-09T06:46:37.381Z,99351.81
2023-01-09T06:49:09.992Z,99356.97
2023-01-09T06:51:40.636Z,99348.19
2023-01-09T06:54:08.155Z,99357.75
2023-01-09T06:56:35.866Z,99361.25
2023-01-09T06:59:03.300Z,99356.03
2023-01-09T07:01:30.914Z,99354.22
2023-01-09T07:03:58.654Z,99349.88
2023-01-09T07:06:26.496Z,99346.38
2023-01-09T07:08:54.053Z,99348.03
2023-01-09T07:11:21.480Z,99348.03
2023-01-09T07:13:48.930Z,99347.03
2023-01-09T07:16:16.502Z,99347.00
2023-01-09T07:18:44.724Z,99350.47
2023-01-09T07:21:12.271Z,99351.31
2023-01-09T07:23:42.826Z,99346.03
2023-01-09T07:26:10.579Z,99352.09
2023-01-09T07:28:38.359Z,99346.81
2023-01-09T07:31:07.649Z,99343.25
2023-01-09T07:33:35.672Z,99353.69
2023-01-09T07:36:03.100Z,99356.31
2023-01-09T07:38:30.628Z,99366.72
2023-01-09T07:40:58.216Z,99363.22
2023-01-09T07:43:25.718Z,99364.06
2023-01-09T07:45:53.192Z,99376.19
2023-01-09T07:48:21.054Z,99378.81
2023-01-09T07:50:48.973Z,99373.53
2023-01-09T07:53:16.455Z,99383.09
2023-01-09T07:55:44.671Z,99374.38
2023-01-09T07:58:12.202Z,99389.97
2023-01-09T08:00:39.846Z,99386.50
2023-01-09T08:03:07.548Z,99389.97
2023-01-09T08:05:35.495Z,99392.53
2023-01-09T08:08:03.032Z,99399.50
2023-01-09T08:10:30.514Z,99403.84
2023-01-09T08:12:58.158Z,99411.66
2023-01-09T08:15:25.624Z,99403.00
2023-01-09T08:17:53.268Z,99421.19
2023-01-09T08:20:20.720Z,99418.59
2023-01-09T08:22:53.545Z,99428.16
2023-01-09T08:25:21.474Z,99419.38
2023-01-09T08:27:49.631Z,99425.53
2023-01-09T08:30:18.412Z,99440.28
2023-01-09T08:32:52.207Z,99445.44
2023-01-09T08:35:20.646Z,99441.09
2023-01-09T08:37:49.071Z,99456.69
2023-01-09T08:40:17.799Z,99455.75
2023-01-09T08:43:04.374Z,99466.19
2023-01-09T08:45:51.370Z,99463.50
2023-01-09T08:48:19.084Z,99469.53
2023-01-09T08:50:46.681Z,99471.16
2023-01-09T08:53:15.551Z,99474.56
2023-01-09T08:55:43.522Z,99483.19
2023-01-09T08:58:11.186Z,99488.31
2023-01-09T09:00:39.210Z,99494.25
2023-01-09T09:03:06.741Z,99498.44
2023-01-09T09:05:34.329Z,99501.69
2023-01-09T09:08:04.124Z,99500.72
2023-01-09T09:10:32.356Z,99510.28
2023-01-09T09:13:00.230Z,99517.22
2023-01-09T09:15:28.609Z,99519.84
2023-01-09T09:18:00.609Z,99527.63
2023-01-09T09:20:35.472Z,99535.47
2023-01-09T09:23:03.577Z,99540.72
2023-01-09T09:25:31.550Z,99548.50
2023-01-09T09:28:00.988Z,99557.16
2023-01-09T09:30:28.808Z,99556.22
2023-01-09T09:32:56.576Z,99556.19
2023-01-09T09:35:24.060Z,99566.66
2023-01-09T09:38:05.313Z,99565.69
2023-01-09T09:41:07.560Z,99569.31
2023-01-09T09:44:48.487Z,99577.31
2023-01-09T09:47:48.733Z,99580.13
2023-01-09T09:50:50.657Z,99595.69
2023-01-09T09:53:32.961Z,99602.63
2023-01-09T09:56:02.614Z,99604.34
2023-01-09T09:59:00.120Z,99615.59
2023-01-09T10:01:39.751Z,99622.59
2023-01-09T10:04:16.605Z,99618.16
2023-01-09T10:06:52.987Z,99633.81
2023-01-09T10:09:49.196Z,99643.22
2023-01-09T10:12:31.256Z,99628.31
2023-01-09T10:15:26.606Z,99641.34
2023-01-09T10:18:14.549Z,99649.19
2023-01-09T10:21:07.306Z,99659.56
2023-01-09T10:24:02.251Z,99659.44
2023-01-09T10:26:38.137Z,99658.53
2023-01-09T10:30:02.544Z,99658.28
2023-01-09T10:33:01.648Z,99652.19
2023-01-09T10:35:59.391Z,99659.13
2023-01-09T10:38:39.758Z,99657.41
2023-01-09T10:41:43.487Z,99658.22
2023-01-09T10:44:37.340Z,99667.84
2023-01-09T10:47:17.216Z,99670.44
2023-01-09T10:49:47.778Z,99671.25
2023-01-09T10:52:34.607Z,99677.13
2023-01-09T10:55:42.831Z,99688.09
2023-01-09T10:58:20.444Z,99672.25
2023-01-09T11:00:50.909Z,99669.53
2023-01-09T11:03:23.279Z,99683.44
2023-01-09T11:06:03.108Z,99679.84
2023-01-09T11:08:43.143Z,99683.44
2023-01-09T11:11:12.773Z,99697.41
2023-01-09T11:13:45.346Z,99689.69
2023-01-09T11:16:23.788Z,99694.06
2023-01-09T11:18:59.411Z,99696.75
2023-01-09T11:21:41.838Z,99694.91
2023-01-09T11:24:18.446Z,99701.75
2023-01-09T11:26:48.059Z,99701.59
2023-01-09T11:29:24.484Z,99712.78
2023-01-09T11:32:00.293Z,99711.81
2023-01-09T11:34:33.020Z,99711.75
2023-01-09T11:37:15.965Z,99710.59
2023-01-09T11:39:48.079Z,99706.00
2023-01-09T11:42:44.391Z,99723.31
2023-01-09T11:45:25.067Z,99721.63
2023-01-09T11:47:52.953Z,99727.69
2023-01-09T11:50:29.964Z,99718.06
2023-01-09T11:53:18.097Z,99725.84
2023-01-09T11:55:56.824Z,99713.63
2023-01-09T11:58:24.632Z,99721.50
2023-01-09T12:01:13.561Z,99730.94
2023-01-09T12:04:09.912Z,99742.97
2023-01-09T12:07:31.443Z,99737.56
2023-01-09T12:10:45.383Z,99735.78
2023-01-09T12:13:59.988Z,99730.47
2023-01-09T12:16:52.166Z,99733.16
2023-01-09T12:19:28.668Z,99728.00
2023-01-09T12:22:37.349Z,99741.00
2023-01-09T12:25:29.174Z,99738.50
2023-01-09T12:28:15.600Z,99745.50
2023-01-09T12:31:12.275Z,99752.44
2023-01-09T12:34:05.529Z,99751.50
2023-01-09T12:37:20.865Z,99750.59
2023-01-09T12:40:07.639Z,99767.97
2023-01-09T12:42:41.358Z,99760.97
2023-01-09T12:45:38.899Z,99759.94
2023-01-09T12:48:36.746Z,99773.03
2023-01-09T12:51:55.293Z,99771.34
2023-01-09T12:54:42.813Z,99775.88
2023-01-09T12:57:22.089Z,99783.81
2023-01-09T13:00:00.392Z,99785.47
2023-01-09T13:02:44.601Z,99781.03
2023-01-09T13:05:33.854Z,99783.59
2023-01-09T13:08:12.725Z,99792.31
2023-01-09T13:10:46.289Z,99802.00
2023-01-09T13:13:25.992Z,99800.34
2023-01-09T13:15:58.723Z,99801.28
2023-01-09T13:18:35.836Z,99806.63
2023-01-09T13:21:03.786Z,99806.72
2023-01-09T13:23:53.670Z,99813.66
2023-01-09T13:26:27.346Z,99811.00
2023-01-09T13:29:21.673Z,99809.22
2023-01-09T13:32:14.581Z,99809.28
2023-01-09T13:34:48.744Z,99841.69
2023-01-09T13:37:24.773Z,99840.88
2023-01-09T13:40:21.463Z,99846.13
2023-01-09T13:43:11.009Z,99856.56
2023-01-09T13:45:40.418Z,99852.94
2023-01-09T13:48:19.947Z,99857.19
2023-01-09T13:50:50.941Z,99859.72
2023-01-09T13:53:18.354Z,99857.13
2023-01-09T13:55:58.569Z,99866.53
2023-01-09T13:58:29.045Z,99876.03
2023-01-09T14:01:01.728Z,99878.56
2023-01-09T14:03:38.454Z,99886.22
2023-01-09T14:06:14.328Z,99887.03
2023-01-09T14:08:44.321Z,99894.88
2023-01-09T14:11:20.697Z,99902.72
2023-01-09T14:14:04.439Z,99909.78
2023-01-09T14:16:32.966Z,99919.31
2023-01-09T14:19:15.792Z,99925.38
2023-01-09T14:22:03.068Z,99935.91
2023-01-09T14:24:39.698Z,99934.22
2023-01-09T14:27:54.358Z,99935.00
2023-01-09T14:30:27.799Z,99942.03
2023-01-09T14:33:19.842Z,99947.19
2023-01-09T14:36:22.127Z,99965.63
2023-01-09T14:38:54.811Z,99970.94
2023-01-09T14:42:06.233Z,99977.03
2023-01-09T14:44:42.947Z,99985.06
2023-01-09T14:47:31.887Z,99984.25
2023-01-09T14:50:25.545Z,99990.47
2023-01-09T14:53:20.904Z,100001.03
2023-01-09T14:55:59.582Z,100003.78
2023-01-09T14:58:36.059Z,100003.00
2023-01-09T15:01:06.367Z,100019.75
2023-01-09T15:03:42.612Z,100030.41
2023-01-09T15:06:28.105Z,100033.19
2023-01-09T15:09:05.029Z,100040.28
2023-01-09T15:11:35.062Z,100050.91
2023-01-09T15:14:05.195Z,100048.31
2023-01-09T15:16:33.286Z,100047.63
2023-01-09T15:19:06.901Z,100064.31
2023-01-09T15:21:34.618Z,100068.78
2023-01-09T15:24:22.644Z,100069.66
2023-01-09T15:26:57.665Z,100072.38
2023-01-09T15:29:26.715Z,100085.50
2023-01-09T15:32:03.910Z,100082.94
2023-01-09T15:34:33.296Z,100091.75
2023-01-09T15:37:03.027Z,100090.03
2023-01-09T15:39:37.560Z,100104.81
2023-01-09T15:42:23.632Z,100111.84
2023-01-09T15:44:53.730Z,100116.28
2023-01-09T15:47:27.862Z,100126.00
2023-01-09T15:49:57.874Z,100131.38
2023-01-09T15:52:26.102Z,100136.75
2023-01-09T15:54:53.515Z,100142.97
2023-01-09T15:57:32.572Z,100154.41
2023-01-09T16:00:39.503Z,100147.63
2023-01-09T16:03:20.388Z,100153.00
2023-01-09T16:05:58.056Z,100151.47
2023-01-09T16:08:30.474Z,100151.63
2023-01-09T16:11:06.753Z,100156.16
2023-01-09T16:13:45.682Z,100167.63
2023-01-09T16:16:25.048Z,100168.63
2023-01-09T16:18:55.958Z,100181.81
2023-01-09T16:21:31.412Z,100191.53
2023-01-09T16:24:03.707Z,100189.91
2023-01-09T16:26:32.346Z,100190.03
2023-01-09T16:29:38.856Z,100186.63
2023-01-09T16:32:17.054Z,100192.00
2023-01-09T16:34:47.296Z,100202.53
2023-01-09T16:37:14.822Z,100202.69
2023-01-09T16:40:05.337Z,100212.34
2023-01-09T16:42:51.940Z,100207.22
2023-01-09T16:45:20.972Z,100214.28
2023-01-09T16:47:48.395Z,100224.81
2023-01-09T16:50:15.956Z,100222.25
2023-01-09T16:52:44.799Z,100228.44
2023-01-09T16:55:13.345Z,100241.50
2023-01-09T16:57:41.516Z,100229.38
2023-01-09T17:00:20.610Z,100233.75
2023-01-09T17:02:48.438Z,100239.09
2023-01-09T17:05:15.925Z,100242.59
2023-01-09T17:07:43.394Z,100247.00
2023-01-09T17:10:21.403Z,100252.22
2023-01-09T17:12:49.750Z,100261.00
2023-01-09T17:15:17.907Z,100268.84
2023-01-09T17:17:45.418Z,100281.06
2023-01-09T17:20:19.153Z,100277.59
2023-01-09T17:22:46.729Z,100280.25
2023-01-09T17:25:43.986Z,100275.84
2023-01-09T17:28:32.030Z,100287.16
2023-01-09T17:31:06.744Z,100288.06
2023-01-09T17:33:34.650Z,100295.03
2023-01-09T17:36:05.817Z,100297.66
2023-01-09T17:38:33.360Z,100294.22
2023-01-09T17:41:00.812Z,100298.53
2023-01-09T17:43:28.324Z,100304.66
2023-01-09T17:45:56.440Z,100306.38
2023-01-09T17:48:24.005Z,100313.31
2023-01-09T17:50:51.708Z,100326.38
2023-01-09T17:53:20.767Z,100322.84
2023-01-09T17:55:48.970Z,100335.88
2023-01-09T17:58:28.904Z,100338.41
2023-01-09T18:00:59.882Z,100343.66
2023-01-09T18:03:33.309Z,100357.56
2023-01-09T18:06:00.939Z,100361.91
2023-01-09T18:08:28.844Z,100362.78
2023-01-09T18:10:56.303Z,100365.41
2023-01-09T18:13:23.765Z,100372.41
2023-01-09T18:15:51.177Z,100379.38
2023-01-09T18:18:19.978Z,100379.38
2023-01-09T18:20:47.491Z,100387.22
2023-01-09T18:23:15.186Z,100391.59
2023-01-09T18:25:44.148Z,100395.06
2023-01-09T18:28:16.879Z,100393.38
2023-01-09T18:30:47.663Z,100404.72
2023-01-09T18:33:16.070Z,100409.09
2023-01-09T18:35:45.364Z,100417.84
2023-01-09T18:38:13.681Z,100428.31
2023-01-09T18:40:41.853Z,100437.91
2023-01-09T18:43:12.799Z,100450.97
2023-01-09T18:45:40.503Z,100456.13
2023-01-09T18:48:12.987Z,100466.56
2023-01-09T18:50:40.445Z,100463.97
2023-01-09T18:53:07.840Z,100479.63
2023-01-09T18:55:37.636Z,100480.47
2023-01-09T18:58:05.918Z,100479.59
2023-01-09T19:00:33.381Z,100489.13
2023-01-09T19:03:01.088Z,100496.09
2023-01-09T19:05:28.598Z,100503.88
2023-01-09T19:07:56.767Z,100510.84
2023-01-09T19:10:24.169Z,100510.84
2023-01-09T19:12:51.605Z,100522.13
2023-01-09T19:15:19.148Z,100525.59
2023-01-09T19:17:46.921Z,100521.25
2023-01-09T19:20:17.203Z,100528.22
2023-01-09T19:22:56.703Z,100537.84
2023-01-09T19:25:24.155Z,100538.75
2023-01-09T19:27:53.493Z,100543.16
2023-01-09T19:30:21.813Z,100550.19
2023-01-09T19:32:49.894Z,100561.56
2023-01-09T19:35:17.630Z,100562.47
2023-01-09T19:37:45.082Z,100572.06
2023-01-09T19:40:13.097Z,100573.00
2023-01-09T19:42:40.582Z,100583.50
2023-01-09T19:45:08.854Z,100590.47
2023-01-09T19:47:36.666Z,100593.16
2023-01-09T19:50:06.404Z,100584.50
2023-01-09T19:52:34.449Z,100591.56
2023-01-09T19:55:04.639Z,100590.72
2023-01-09T19:57:32.096Z,100609.06
2023-01-09T19:59:59.525Z,100611.72
2023-01-09T20:02:28.028Z,100617.84
2023-01-09T20:04:55.852Z,100616.97
2023-01-09T20:07:23.344Z,100628.28
2023-01-09T20:09:50.937Z,100637.88
2023-01-09T20:12:18.341Z,100638.78
2023-01-09T20:14:45.974Z,100643.13
2023-01-09T20:17:14.538Z,100655.31
2023-01-09T20:19:44.074Z,100647.50
2023-01-09T20:22:13.151Z,100661.44
2023-01-09T20:24:40.786Z,100672.75
2023-01-09T20:27:08.569Z,100673.66
2023-01-09T20:29:36.032Z,100674.50
2023-01-09T20:32:06.132Z,100683.19
2023-01-09T20:34:33.549Z,100700.59
2023-01-09T20:37:01.014Z,100693.63
2023-01-09T20:39:28.515Z,100703.16
2023-01-09T20:41:56.051Z,100700.53
2023-01-09T20:44:23.667Z,100692.66
2023-01-09T20:46:53.551Z,100695.25
2023-01-09T20:49:21.387Z,100693.50
2023-01-09T20:51:52.406Z,100699.56
2023-01-09T20:54:21.903Z,100707.44
2023-01-09T20:56:49.884Z,100718.75
2023-01-09T20:59:22.564Z,100726.59
2023-01-09T21:01:51.068Z,100732.72
2023-01-09T21:04:19.458Z,100737.09
2023-01-09T21:06:49.644Z,100738.00
2023-01-09T21:09:17.832Z,100743.22
2023-01-09T21:11:45.544Z,100747.59
2023-01-09T21:14:13.066Z,100756.31
2023-01-09T21:16:40.615Z,100764.16
2023-01-09T21:19:09.161Z,100762.44
2023-01-09T21:21:42.244Z,100769.44
2023-01-09T21:24:09.926Z,100766.88
2023-01-09T21:26:37.621Z,100770.41
2023-01-09T21:29:08.255Z,100773.91
2023-01-09T21:31:36.018Z,100776.56
2023-01-09T21:34:07.813Z,100783.53
2023-01-09T21:36:36.391Z,100782.69
2023-01-09T21:39:08.115Z,100780.13
2023-01-09T21:41:54.687Z,100785.41
2023-01-09T21:44:41.011Z,100786.31
2023-01-09T21:47:08.881Z,100795.91
2023-01-09T21:49:43.641Z,100798.53
2023-01-09T21:52:13.018Z,100808.13
2023-01-09T21:54:41.760Z,100811.59
2023-01-09T21:57:10.092Z,100820.31
2023-01-09T21:59:37.717Z,100826.38
2023-01-09T22:02:06.616Z,100827.28
2023-01-09T22:04:36.555Z,100835.09
2023-01-09T22:07:04.516Z,100837.72
2023-01-09T22:09:32.598Z,100852.50
2023-01-09T22:12:00.184Z,100857.75
2023-01-09T22:14:28.290Z,100862.97
2023-01-09T22:16:55.769Z,100865.56
2023-01-09T22:19:24.328Z,100862.09
2023-01-09T22:21:52.296Z,100869.03
2023-01-09T22:24:21.822Z,100863.84
2023-01-09T22:26:49.653Z,100872.53
2023-01-09T22:29:17.552Z,100880.34
2023-01-09T22:31:45.493Z,100886.47
2023-01-09T22:34:16.696Z,100904.72
2023-01-09T22:36:49.620Z,100902.09
2023-01-09T22:39:19.768Z,100913.41
2023-01-09T22:41:54.499Z,100919.47
2023-01-09T22:44:22.325Z,100919.47
2023-01-09T22:46:50.247Z,100929.03
2023-01-09T22:49:17.852Z,100927.31
2023-01-09T22:51:45.334Z,100933.41
2023-01-09T22:54:12.842Z,100940.34
2023-01-09T22:56:40.347Z,100946.44
2023-01-09T22:59:07.828Z,100949.06
2023-01-09T23:01:35.362Z,100960.34
2023-01-09T23:04:04.665Z,100960.34
2023-01-09T23:06:32.131Z,100958.63
2023-01-09T23:08:59.608Z,100968.16
2023-01-09T23:11:49.087Z,100976.00
2023-01-09T23:14:17.709Z,100986.44
2023-01-09T23:16:45.188Z,100990.78
2023-01-09T23:19:15.917Z,101003.81
2023-01-09T23:21:45.305Z,101008.16
2023-01-09T23:24:16.242Z,101009.91
2023-01-09T23:26:44.659Z,101014.22
2023-01-09T23:29:15.919Z,101023.78
2023-01-09T23:31:43.477Z,101029.00
2023-01-09T23:34:19.720Z,101032.44
2023-01-09T23:36:50.035Z,101031.59
2023-01-09T23:39:18.064Z,101036.78
2023-01-09T23:42:04.656Z,101046.31
2023-01-09T23:44:32.103Z,101043.69
2023-01-09T23:46:59.576Z,101053.25
2023-01-09T23:49:27.131Z,101060.19
2023-01-09T23:51:54.639Z,101063.66
2023-01-09T23:54:22.080Z,101065.41
2023-01-09T23:56:49.629Z,101068.03
2023-01-09T23:59:18.023Z,101070.63
